sensor_id;sensor_type;location;lat;lon;timestamp;temperature;humidity
12329;DHT22;6230;52.390;10.256;2023-09-18T00:00:43;24.40;53.50
12329;DHT22;6230;52.390;10.256;2023-09-18T00:03:09;24.40;53.50
12329;DHT22;6230;52.390;10.256;2023-09-18T00:05:35;24.30;53.50
12329;DHT22;6230;52.390;10.256;2023-09-18T00:08:01;24.30;53.60
12329;DHT22;6230;52.390;10.256;2023-09-18T00:10:29;24.30;53.70
12329;DHT22;6230;52.390;10.256;2023-09-18T00:12:56;24.20;53.70
12329;DHT22;6230;52.390;10.256;2023-09-18T00:15:21;24.20;53.60
12329;DHT22;6230;52.390;10.256;2023-09-18T00:17:47;24.20;53.50
12329;DHT22;6230;52.390;10.256;2023-09-18T00:20:12;24.30;53.50
12329;DHT22;6230;52.390;10.256;2023-09-18T00:22:39;24.30;53.40
12329;DHT22;6230;52.390;10.256;2023-09-18T00:25:04;24.30;53.30
12329;DHT22;6230;52.390;10.256;2023-09-18T00:27:30;24.40;53.20
12329;DHT22;6230;52.390;10.256;2023-09-18T00:29:55;24.40;53.10
12329;DHT22;6230;52.390;10.256;2023-09-18T00:32:21;24.50;53.00
12329;DHT22;6230;52.390;10.256;2023-09-18T00:34:47;24.50;52.90
12329;DHT22;6230;52.390;10.256;2023-09-18T00:37:12;24.50;52.80
12329;DHT22;6230;52.390;10.256;2023-09-18T00:39:38;24.50;52.70
12329;DHT22;6230;52.390;10.256;2023-09-18T00:42:04;24.50;52.60
12329;DHT22;6230;52.390;10.256;2023-09-18T00:44:29;24.50;52.60
12329;DHT22;6230;52.390;10.256;2023-09-18T00:46:55;24.50;52.60
12329;DHT22;6230;52.390;10.256;2023-09-18T00:49:22;24.50;52.70
12329;DHT22;6230;52.390;10.256;2023-09-18T00:51:50;24.40;52.80
12329;DHT22;6230;52.390;10.256;2023-09-18T00:54:18;24.30;52.80
12329;DHT22;6230;52.390;10.256;2023-09-18T00:56:45;24.30;52.90
12329;DHT22;6230;52.390;10.256;2023-09-18T00:59:12;24.30;52.90
12329;DHT22;6230;52.390;10.256;2023-09-18T01:01:39;24.30;52.90
12329;DHT22;6230;52.390;10.256;2023-09-18T01:04:05;24.20;52.90
12329;DHT22;6230;52.390;10.256;2023-09-18T01:06:31;24.20;52.90
12329;DHT22;6230;52.390;10.256;2023-09-18T01:08:56;24.10;52.90
12329;DHT22;6230;52.390;10.256;2023-09-18T01:17:03;24.00;53.00
12329;DHT22;6230;52.390;10.256;2023-09-18T01:19:46;24.00;53.20
12329;DHT22;6230;52.390;10.256;2023-09-18T01:22:16;23.90;53.20
12329;DHT22;6230;52.390;10.256;2023-09-18T01:24:43;23.90;53.30
12329;DHT22;6230;52.390;10.256;2023-09-18T01:27:11;23.80;53.30
12329;DHT22;6230;52.390;10.256;2023-09-18T01:29:38;23.80;54.10
12329;DHT22;6230;52.390;10.256;2023-09-18T01:32:04;23.70;53.50
12329;DHT22;6230;52.390;10.256;2023-09-18T01:34:35;23.70;53.70
12329;DHT22;6230;52.390;10.256;2023-09-18T01:37:03;23.70;53.80
12329;DHT22;6230;52.390;10.256;2023-09-18T01:39:31;23.60;53.90
12329;DHT22;6230;52.390;10.256;2023-09-18T01:42:02;23.60;54.20
12329;DHT22;6230;52.390;10.256;2023-09-18T01:44:29;23.50;54.50
12329;DHT22;6230;52.390;10.256;2023-09-18T01:46:58;23.40;54.40
12329;DHT22;6230;52.390;10.256;2023-09-18T01:49:33;23.40;54.50
12329;DHT22;6230;52.390;10.256;2023-09-18T01:51:59;23.40;54.40
12329;DHT22;6230;52.390;10.256;2023-09-18T01:54:25;23.40;54.30
12329;DHT22;6230;52.390;10.256;2023-09-18T01:56:51;23.40;54.30
12329;DHT22;6230;52.390;10.256;2023-09-18T01:59:17;23.40;54.50
12329;DHT22;6230;52.390;10.256;2023-09-18T02:01:43;23.40;54.50
12329;DHT22;6230;52.390;10.256;2023-09-18T02:04:09;23.30;54.60
12329;DHT22;6230;52.390;10.256;2023-09-18T02:06:35;23.30;54.60
12329;DHT22;6230;52.390;10.256;2023-09-18T02:09:01;23.30;54.70
12329;DHT22;6230;52.390;10.256;2023-09-18T02:11:27;23.30;54.90
12329;DHT22;6230;52.390;10.256;2023-09-18T02:13:53;23.20;54.90
12329;DHT22;6230;52.390;10.256;2023-09-18T02:16:18;23.20;54.90
12329;DHT22;6230;52.390;10.256;2023-09-18T02:18:46;23.20;54.80
12329;DHT22;6230;52.390;10.256;2023-09-18T02:21:21;23.20;54.80
12329;DHT22;6230;52.390;10.256;2023-09-18T02:23:51;23.20;54.80
12329;DHT22;6230;52.390;10.256;2023-09-18T02:26:17;23.20;54.80
12329;DHT22;6230;52.390;10.256;2023-09-18T02:28:43;23.20;54.90
12329;DHT22;6230;52.390;10.256;2023-09-18T02:31:09;23.20;54.90
12329;DHT22;6230;52.390;10.256;2023-09-18T02:33:35;23.20;54.90
12329;DHT22;6230;52.390;10.256;2023-09-18T02:36:00;23.20;54.90
12329;DHT22;6230;52.390;10.256;2023-09-18T02:38:27;23.20;55.50
12329;DHT22;6230;52.390;10.256;2023-09-18T02:40:53;23.20;55.00
12329;DHT22;6230;52.390;10.256;2023-09-18T02:43:20;23.20;55.30
12329;DHT22;6230;52.390;10.256;2023-09-18T02:45:46;23.10;55.30
12329;DHT22;6230;52.390;10.256;2023-09-18T02:48:11;23.00;55.70
12329;DHT22;6230;52.390;10.256;2023-09-18T02:50:38;23.00;55.90
12329;DHT22;6230;52.390;10.256;2023-09-18T02:53:06;22.90;55.80
12329;DHT22;6230;52.390;10.256;2023-09-18T02:55:32;22.90;56.20
12329;DHT22;6230;52.390;10.256;2023-09-18T02:57:58;22.90;56.40
12329;DHT22;6230;52.390;10.256;2023-09-18T03:00:24;22.80;56.40
12329;DHT22;6230;52.390;10.256;2023-09-18T03:02:49;22.80;56.40
12329;DHT22;6230;52.390;10.256;2023-09-18T03:05:15;22.80;56.40
12329;DHT22;6230;52.390;10.256;2023-09-18T03:07:41;22.80;56.50
12329;DHT22;6230;52.390;10.256;2023-09-18T03:10:07;22.80;56.60
12329;DHT22;6230;52.390;10.256;2023-09-18T03:12:32;22.70;56.60
12329;DHT22;6230;52.390;10.256;2023-09-18T03:14:59;22.70;56.80
12329;DHT22;6230;52.390;10.256;2023-09-18T03:17:24;22.60;57.00
12329;DHT22;6230;52.390;10.256;2023-09-18T03:19:50;22.60;57.10
12329;DHT22;6230;52.390;10.256;2023-09-18T03:22:15;22.60;57.10
12329;DHT22;6230;52.390;10.256;2023-09-18T03:24:41;22.60;57.20
12329;DHT22;6230;52.390;10.256;2023-09-18T03:27:06;22.60;57.30
12329;DHT22;6230;52.390;10.256;2023-09-18T03:29:32;22.60;57.50
12329;DHT22;6230;52.390;10.256;2023-09-18T03:31:58;22.50;57.40
12329;DHT22;6230;52.390;10.256;2023-09-18T03:34:25;22.50;57.40
12329;DHT22;6230;52.390;10.256;2023-09-18T03:36:53;22.50;57.50
12329;DHT22;6230;52.390;10.256;2023-09-18T03:39:19;22.50;57.40
12329;DHT22;6230;52.390;10.256;2023-09-18T03:41:45;22.60;57.30
12329;DHT22;6230;52.390;10.256;2023-09-18T03:44:11;22.60;57.30
12329;DHT22;6230;52.390;10.256;2023-09-18T03:46:37;22.60;57.10
12329;DHT22;6230;52.390;10.256;2023-09-18T03:49:02;22.60;57.00
12329;DHT22;6230;52.390;10.256;2023-09-18T03:51:28;22.70;56.80
12329;DHT22;6230;52.390;10.256;2023-09-18T03:53:55;22.70;56.80
12329;DHT22;6230;52.390;10.256;2023-09-18T03:56:21;22.70;56.70
12329;DHT22;6230;52.390;10.256;2023-09-18T03:58:47;22.80;56.60
12329;DHT22;6230;52.390;10.256;2023-09-18T04:01:15;22.80;56.50
12329;DHT22;6230;52.390;10.256;2023-09-18T04:03:41;22.80;56.40
12329;DHT22;6230;52.390;10.256;2023-09-18T04:06:07;22.90;56.30
12329;DHT22;6230;52.390;10.256;2023-09-18T04:08:32;22.80;56.30
12329;DHT22;6230;52.390;10.256;2023-09-18T04:10:58;22.80;56.30
12329;DHT22;6230;52.390;10.256;2023-09-18T04:13:24;22.80;56.40
12329;DHT22;6230;52.390;10.256;2023-09-18T04:15:50;22.80;56.50
12329;DHT22;6230;52.390;10.256;2023-09-18T04:18:15;22.80;57.20
12329;DHT22;6230;52.390;10.256;2023-09-18T04:20:41;22.70;56.50
12329;DHT22;6230;52.390;10.256;2023-09-18T04:23:23;22.70;56.60
12329;DHT22;6230;52.390;10.256;2023-09-18T04:25:50;22.70;56.80
12329;DHT22;6230;52.390;10.256;2023-09-18T04:28:17;22.70;56.70
12329;DHT22;6230;52.390;10.256;2023-09-18T04:30:44;22.60;57.50
12329;DHT22;6230;52.390;10.256;2023-09-18T04:33:09;22.60;56.80
12329;DHT22;6230;52.390;10.256;2023-09-18T04:35:35;22.60;56.90
12329;DHT22;6230;52.390;10.256;2023-09-18T04:38:00;22.60;56.90
12329;DHT22;6230;52.390;10.256;2023-09-18T04:40:26;22.60;56.90
12329;DHT22;6230;52.390;10.256;2023-09-18T04:42:57;22.60;57.00
12329;DHT22;6230;52.390;10.256;2023-09-18T04:45:23;22.60;56.90
12329;DHT22;6230;52.390;10.256;2023-09-18T04:47:48;22.60;57.10
12329;DHT22;6230;52.390;10.256;2023-09-18T04:50:14;22.60;57.10
12329;DHT22;6230;52.390;10.256;2023-09-18T04:52:39;22.60;57.10
12329;DHT22;6230;52.390;10.256;2023-09-18T04:55:06;22.60;57.00
12329;DHT22;6230;52.390;10.256;2023-09-18T04:57:32;22.60;57.00
12329;DHT22;6230;52.390;10.256;2023-09-18T04:59:57;22.60;56.90
12329;DHT22;6230;52.390;10.256;2023-09-18T05:02:23;22.60;56.70
12329;DHT22;6230;52.390;10.256;2023-09-18T05:04:51;22.60;56.60
12329;DHT22;6230;52.390;10.256;2023-09-18T05:07:16;22.60;56.60
12329;DHT22;6230;52.390;10.256;2023-09-18T05:09:42;22.70;56.50
12329;DHT22;6230;52.390;10.256;2023-09-18T05:12:08;22.60;56.40
12329;DHT22;6230;52.390;10.256;2023-09-18T05:14:39;22.70;56.50
12329;DHT22;6230;52.390;10.256;2023-09-18T05:17:06;22.70;56.60
12329;DHT22;6230;52.390;10.256;2023-09-18T05:19:31;22.60;56.50
12329;DHT22;6230;52.390;10.256;2023-09-18T05:21:57;22.60;56.50
12329;DHT22;6230;52.390;10.256;2023-09-18T05:24:23;22.60;56.50
12329;DHT22;6230;52.390;10.256;2023-09-18T05:26:52;22.60;56.50
12329;DHT22;6230;52.390;10.256;2023-09-18T05:29:19;22.60;56.60
12329;DHT22;6230;52.390;10.256;2023-09-18T05:31:44;22.60;56.70
12329;DHT22;6230;52.390;10.256;2023-09-18T05:34:11;22.60;56.70
12329;DHT22;6230;52.390;10.256;2023-09-18T05:36:37;22.60;56.80
12329;DHT22;6230;52.390;10.256;2023-09-18T05:39:03;22.60;56.70
12329;DHT22;6230;52.390;10.256;2023-09-18T05:41:28;22.60;56.80
12329;DHT22;6230;52.390;10.256;2023-09-18T05:43:55;22.60;56.80
12329;DHT22;6230;52.390;10.256;2023-09-18T05:46:21;22.60;57.10
12329;DHT22;6230;52.390;10.256;2023-09-18T05:48:46;22.60;57.00
12329;DHT22;6230;52.390;10.256;2023-09-18T05:51:12;22.60;57.10
12329;DHT22;6230;52.390;10.256;2023-09-18T05:53:37;22.70;57.10
12329;DHT22;6230;52.390;10.256;2023-09-18T05:56:04;22.70;57.00
12329;DHT22;6230;52.390;10.256;2023-09-18T05:58:32;22.70;57.60
12329;DHT22;6230;52.390;10.256;2023-09-18T06:00:59;22.70;57.70
12329;DHT22;6230;52.390;10.256;2023-09-18T06:03:26;22.80;57.60
12329;DHT22;6230;52.390;10.256;2023-09-18T06:05:52;22.80;57.50
12329;DHT22;6230;52.390;10.256;2023-09-18T06:08:17;22.80;57.60
12329;DHT22;6230;52.390;10.256;2023-09-18T06:10:44;22.90;57.70
12329;DHT22;6230;52.390;10.256;2023-09-18T06:13:10;22.80;57.80
12329;DHT22;6230;52.390;10.256;2023-09-18T06:15:36;22.90;58.30
12329;DHT22;6230;52.390;10.256;2023-09-18T06:18:02;22.80;58.60
12329;DHT22;6230;52.390;10.256;2023-09-18T06:20:29;22.80;58.80
12329;DHT22;6230;52.390;10.256;2023-09-18T06:22:54;22.80;58.90
12329;DHT22;6230;52.390;10.256;2023-09-18T06:25:20;22.80;58.80
12329;DHT22;6230;52.390;10.256;2023-09-18T06:27:46;22.80;58.60
12329;DHT22;6230;52.390;10.256;2023-09-18T06:30:12;22.90;59.10
12329;DHT22;6230;52.390;10.256;2023-09-18T06:32:37;22.90;59.10
12329;DHT22;6230;52.390;10.256;2023-09-18T06:35:03;22.90;59.10
12329;DHT22;6230;52.390;10.256;2023-09-18T06:37:29;22.90;59.30
12329;DHT22;6230;52.390;10.256;2023-09-18T06:39:55;22.90;59.20
12329;DHT22;6230;52.390;10.256;2023-09-18T06:42:22;23.00;59.40
12329;DHT22;6230;52.390;10.256;2023-09-18T06:44:47;23.00;59.30
12329;DHT22;6230;52.390;10.256;2023-09-18T06:47:13;23.00;59.50
12329;DHT22;6230;52.390;10.256;2023-09-18T06:49:40;23.00;59.50
12329;DHT22;6230;52.390;10.256;2023-09-18T06:52:07;23.00;59.90
12329;DHT22;6230;52.390;10.256;2023-09-18T06:54:33;23.10;59.80
12329;DHT22;6230;52.390;10.256;2023-09-18T06:56:58;23.10;59.70
12329;DHT22;6230;52.390;10.256;2023-09-18T06:59:24;23.20;60.00
12329;DHT22;6230;52.390;10.256;2023-09-18T07:01:49;23.20;59.90
12329;DHT22;6230;52.390;10.256;2023-09-18T07:04:15;23.20;59.70
12329;DHT22;6230;52.390;10.256;2023-09-18T07:06:41;23.30;60.60
12329;DHT22;6230;52.390;10.256;2023-09-18T07:09:06;23.30;59.80
12329;DHT22;6230;52.390;10.256;2023-09-18T07:11:33;23.40;59.90
12329;DHT22;6230;52.390;10.256;2023-09-18T07:13:59;23.40;60.00
12329;DHT22;6230;52.390;10.256;2023-09-18T07:16:25;23.40;59.90
12329;DHT22;6230;52.390;10.256;2023-09-18T07:18:51;23.40;59.80
12329;DHT22;6230;52.390;10.256;2023-09-18T07:21:16;23.50;59.70
12329;DHT22;6230;52.390;10.256;2023-09-18T07:23:42;23.60;59.70
12329;DHT22;6230;52.390;10.256;2023-09-18T07:26:07;23.60;59.60
12329;DHT22;6230;52.390;10.256;2023-09-18T07:28:33;23.60;59.50
12329;DHT22;6230;52.390;10.256;2023-09-18T07:31:08;23.60;59.30
12329;DHT22;6230;52.390;10.256;2023-09-18T07:33:35;23.70;59.20
12329;DHT22;6230;52.390;10.256;2023-09-18T07:36:01;23.80;59.00
12329;DHT22;6230;52.390;10.256;2023-09-18T07:38:26;23.80;58.90
12329;DHT22;6230;52.390;10.256;2023-09-18T07:40:52;23.80;58.70
12329;DHT22;6230;52.390;10.256;2023-09-18T07:43:17;23.80;58.70
12329;DHT22;6230;52.390;10.256;2023-09-18T07:45:43;23.90;58.60
12329;DHT22;6230;52.390;10.256;2023-09-18T07:48:09;23.90;58.60
12329;DHT22;6230;52.390;10.256;2023-09-18T07:50:34;23.90;58.50
12329;DHT22;6230;52.390;10.256;2023-09-18T07:53:01;23.90;58.50
12329;DHT22;6230;52.390;10.256;2023-09-18T07:55:27;23.90;58.50
12329;DHT22;6230;52.390;10.256;2023-09-18T07:57:53;24.00;58.50
12329;DHT22;6230;52.390;10.256;2023-09-18T08:00:19;24.00;58.40
12329;DHT22;6230;52.390;10.256;2023-09-18T08:02:48;24.10;58.30
12329;DHT22;6230;52.390;10.256;2023-09-18T08:05:16;24.10;58.20
12329;DHT22;6230;52.390;10.256;2023-09-18T08:07:41;24.20;58.20
12329;DHT22;6230;52.390;10.256;2023-09-18T08:10:07;24.20;58.20
12329;DHT22;6230;52.390;10.256;2023-09-18T08:12:34;24.20;58.20
12329;DHT22;6230;52.390;10.256;2023-09-18T08:14:59;24.20;58.20
12329;DHT22;6230;52.390;10.256;2023-09-18T08:17:26;24.30;58.30
12329;DHT22;6230;52.390;10.256;2023-09-18T08:19:52;24.30;58.20
12329;DHT22;6230;52.390;10.256;2023-09-18T08:22:18;24.40;58.20
12329;DHT22;6230;52.390;10.256;2023-09-18T08:24:45;24.50;58.10
12329;DHT22;6230;52.390;10.256;2023-09-18T08:27:13;24.50;57.90
12329;DHT22;6230;52.390;10.256;2023-09-18T08:29:38;24.70;58.00
12329;DHT22;6230;52.390;10.256;2023-09-18T08:32:04;24.70;57.90
12329;DHT22;6230;52.390;10.256;2023-09-18T08:34:30;24.80;58.00
12329;DHT22;6230;52.390;10.256;2023-09-18T08:36:55;24.80;58.00
12329;DHT22;6230;52.390;10.256;2023-09-18T08:39:21;24.90;57.90
12329;DHT22;6230;52.390;10.256;2023-09-18T08:41:51;25.00;57.90
12329;DHT22;6230;52.390;10.256;2023-09-18T08:44:17;25.00;57.80
12329;DHT22;6230;52.390;10.256;2023-09-18T08:46:43;25.10;57.80
12329;DHT22;6230;52.390;10.256;2023-09-18T08:49:11;25.20;57.70
12329;DHT22;6230;52.390;10.256;2023-09-18T08:51:38;25.30;57.70
12329;DHT22;6230;52.390;10.256;2023-09-18T08:54:04;25.30;57.50
12329;DHT22;6230;52.390;10.256;2023-09-18T08:56:32;25.40;57.50
12329;DHT22;6230;52.390;10.256;2023-09-18T08:58:59;25.50;57.60
12329;DHT22;6230;52.390;10.256;2023-09-18T09:01:25;25.60;57.60
12329;DHT22;6230;52.390;10.256;2023-09-18T09:03:50;25.60;57.50
12329;DHT22;6230;52.390;10.256;2023-09-18T09:06:16;25.70;57.40
12329;DHT22;6230;52.390;10.256;2023-09-18T09:08:42;25.70;57.40
12329;DHT22;6230;52.390;10.256;2023-09-18T09:11:08;25.80;57.40
12329;DHT22;6230;52.390;10.256;2023-09-18T09:13:33;25.90;57.40
12329;DHT22;6230;52.390;10.256;2023-09-18T09:15:59;25.90;57.30
12329;DHT22;6230;52.390;10.256;2023-09-18T09:18:29;25.90;57.20
12329;DHT22;6230;52.390;10.256;2023-09-18T09:21:03;25.90;57.20
12329;DHT22;6230;52.390;10.256;2023-09-18T09:23:45;25.90;57.20
12329;DHT22;6230;52.390;10.256;2023-09-18T09:26:16;25.80;57.30
12329;DHT22;6230;52.390;10.256;2023-09-18T09:28:43;25.90;57.30
12329;DHT22;6230;52.390;10.256;2023-09-18T09:31:09;25.80;57.20
12329;DHT22;6230;52.390;10.256;2023-09-18T09:33:36;25.80;57.30
12329;DHT22;6230;52.390;10.256;2023-09-18T09:36:07;25.80;57.30
12329;DHT22;6230;52.390;10.256;2023-09-18T09:38:34;25.80;57.30
12329;DHT22;6230;52.390;10.256;2023-09-18T09:41:04;25.80;57.30
12329;DHT22;6230;52.390;10.256;2023-09-18T09:43:35;25.80;57.30
12329;DHT22;6230;52.390;10.256;2023-09-18T09:46:01;25.90;57.30
12329;DHT22;6230;52.390;10.256;2023-09-18T09:48:27;25.90;57.20
12329;DHT22;6230;52.390;10.256;2023-09-18T09:50:58;25.90;57.20
12329;DHT22;6230;52.390;10.256;2023-09-18T09:53:46;26.00;57.20
12329;DHT22;6230;52.390;10.256;2023-09-18T09:56:16;25.90;57.10
12329;DHT22;6230;52.390;10.256;2023-09-18T09:59:07;26.00;57.10
12329;DHT22;6230;52.390;10.256;2023-09-18T10:01:37;25.90;57.10
12329;DHT22;6230;52.390;10.256;2023-09-18T10:04:05;26.00;57.00
12329;DHT22;6230;52.390;10.256;2023-09-18T10:06:35;26.00;57.00
12329;DHT22;6230;52.390;10.256;2023-09-18T10:09:03;26.00;57.00
12329;DHT22;6230;52.390;10.256;2023-09-18T10:11:31;26.00;57.00
12329;DHT22;6230;52.390;10.256;2023-09-18T10:16:34;25.90;56.90
12329;DHT22;6230;52.390;10.256;2023-09-18T10:21:53;25.90;57.10
12329;DHT22;6230;52.390;10.256;2023-09-18T10:24:25;25.90;57.10
12329;DHT22;6230;52.390;10.256;2023-09-18T10:27:02;25.90;57.10
12329;DHT22;6230;52.390;10.256;2023-09-18T10:29:31;25.90;57.10
12329;DHT22;6230;52.390;10.256;2023-09-18T10:31:58;25.90;57.10
12329;DHT22;6230;52.390;10.256;2023-09-18T10:34:24;25.90;57.00
12329;DHT22;6230;52.390;10.256;2023-09-18T10:36:52;26.00;57.10
12329;DHT22;6230;52.390;10.256;2023-09-18T10:39:18;25.90;57.00
12329;DHT22;6230;52.390;10.256;2023-09-18T10:41:50;25.90;57.00
12329;DHT22;6230;52.390;10.256;2023-09-18T10:44:16;25.90;56.90
12329;DHT22;6230;52.390;10.256;2023-09-18T10:46:44;25.90;56.90
12329;DHT22;6230;52.390;10.256;2023-09-18T10:49:10;25.90;56.90
12329;DHT22;6230;52.390;10.256;2023-09-18T10:51:37;26.00;56.90
12329;DHT22;6230;52.390;10.256;2023-09-18T10:54:08;26.00;56.90
12329;DHT22;6230;52.390;10.256;2023-09-18T10:56:34;26.00;56.80
12329;DHT22;6230;52.390;10.256;2023-09-18T10:59:01;26.00;56.80
12329;DHT22;6230;52.390;10.256;2023-09-18T11:01:30;26.00;56.80
12329;DHT22;6230;52.390;10.256;2023-09-18T11:04:02;26.00;56.80
12329;DHT22;6230;52.390;10.256;2023-09-18T11:06:29;26.10;56.90
12329;DHT22;6230;52.390;10.256;2023-09-18T11:09:06;26.10;56.80
12329;DHT22;6230;52.390;10.256;2023-09-18T11:11:32;26.20;56.90
12329;DHT22;6230;52.390;10.256;2023-09-18T11:14:00;26.20;56.70
12329;DHT22;6230;52.390;10.256;2023-09-18T11:21:29;26.20;56.60
12329;DHT22;6230;52.390;10.256;2023-09-18T11:24:06;26.30;56.70
12329;DHT22;6230;52.390;10.256;2023-09-18T11:26:39;26.30;56.60
12329;DHT22;6230;52.390;10.256;2023-09-18T11:29:07;26.30;56.50
12329;DHT22;6230;52.390;10.256;2023-09-18T11:31:54;26.30;56.50
12329;DHT22;6230;52.390;10.256;2023-09-18T11:36:46;26.40;56.50
12329;DHT22;6230;52.390;10.256;2023-09-18T11:39:12;26.40;56.40
12329;DHT22;6230;52.390;10.256;2023-09-18T11:41:38;26.40;56.40
12329;DHT22;6230;52.390;10.256;2023-09-18T11:46:38;26.50;56.40
12329;DHT22;6230;52.390;10.256;2023-09-18T11:49:07;26.50;56.30
12329;DHT22;6230;52.390;10.256;2023-09-18T11:51:32;26.40;56.20
12329;DHT22;6230;52.390;10.256;2023-09-18T11:54:01;26.40;56.20
12329;DHT22;6230;52.390;10.256;2023-09-18T11:56:29;26.40;56.20
12329;DHT22;6230;52.390;10.256;2023-09-18T11:58:55;26.40;56.20
12329;DHT22;6230;52.390;10.256;2023-09-18T12:01:20;26.40;56.10
12329;DHT22;6230;52.390;10.256;2023-09-18T12:03:53;26.40;56.10
12329;DHT22;6230;52.390;10.256;2023-09-18T12:06:19;26.40;56.10
12329;DHT22;6230;52.390;10.256;2023-09-18T12:08:46;26.50;56.10
12329;DHT22;6230;52.390;10.256;2023-09-18T12:11:12;26.40;56.00
12329;DHT22;6230;52.390;10.256;2023-09-18T12:13:46;26.40;56.00
12329;DHT22;6230;52.390;10.256;2023-09-18T12:16:11;26.40;56.00
12329;DHT22;6230;52.390;10.256;2023-09-18T12:18:37;26.40;56.00
12329;DHT22;6230;52.390;10.256;2023-09-18T12:21:09;26.40;56.00
12329;DHT22;6230;52.390;10.256;2023-09-18T12:23:40;26.50;56.10
12329;DHT22;6230;52.390;10.256;2023-09-18T12:26:06;26.50;56.10
12329;DHT22;6230;52.390;10.256;2023-09-18T12:28:36;26.60;56.00
12329;DHT22;6230;52.390;10.256;2023-09-18T12:31:03;26.70;56.00
12329;DHT22;6230;52.390;10.256;2023-09-18T12:33:39;26.80;55.90
12329;DHT22;6230;52.390;10.256;2023-09-18T12:36:06;26.80;55.90
12329;DHT22;6230;52.390;10.256;2023-09-18T12:38:33;26.80;55.80
12329;DHT22;6230;52.390;10.256;2023-09-18T12:40:59;26.80;55.70
12329;DHT22;6230;52.390;10.256;2023-09-18T12:43:41;26.80;55.70
12329;DHT22;6230;52.390;10.256;2023-09-18T12:46:08;26.70;55.70
12329;DHT22;6230;52.390;10.256;2023-09-18T12:48:38;26.70;55.80
12329;DHT22;6230;52.390;10.256;2023-09-18T12:51:07;26.70;55.80
12329;DHT22;6230;52.390;10.256;2023-09-18T12:53:33;26.60;55.80
12329;DHT22;6230;52.390;10.256;2023-09-18T12:56:13;26.60;55.80
12329;DHT22;6230;52.390;10.256;2023-09-18T12:58:39;26.60;55.80
12329;DHT22;6230;52.390;10.256;2023-09-18T13:01:09;26.50;55.80
12329;DHT22;6230;52.390;10.256;2023-09-18T13:03:45;26.50;55.80
12329;DHT22;6230;52.390;10.256;2023-09-18T13:06:18;26.40;55.80
12329;DHT22;6230;52.390;10.256;2023-09-18T13:08:44;26.40;55.80
12329;DHT22;6230;52.390;10.256;2023-09-18T13:11:10;26.40;55.80
12329;DHT22;6230;52.390;10.256;2023-09-18T13:13:42;26.30;55.80
12329;DHT22;6230;52.390;10.256;2023-09-18T13:16:09;26.30;55.90
12329;DHT22;6230;52.390;10.256;2023-09-18T13:18:35;26.30;55.90
12329;DHT22;6230;52.390;10.256;2023-09-18T13:21:08;26.30;55.80
12329;DHT22;6230;52.390;10.256;2023-09-18T13:23:35;26.20;55.80
12329;DHT22;6230;52.390;10.256;2023-09-18T13:26:02;26.20;55.80
12329;DHT22;6230;52.390;10.256;2023-09-18T13:28:28;26.20;55.80
12329;DHT22;6230;52.390;10.256;2023-09-18T13:30:56;26.20;55.80
12329;DHT22;6230;52.390;10.256;2023-09-18T13:33:22;26.20;55.80
12329;DHT22;6230;52.390;10.256;2023-09-18T13:35:49;26.20;55.80
12329;DHT22;6230;52.390;10.256;2023-09-18T13:38:15;26.20;55.70
12329;DHT22;6230;52.390;10.256;2023-09-18T13:40:41;26.10;55.70
12329;DHT22;6230;52.390;10.256;2023-09-18T13:43:10;26.10;55.70
12329;DHT22;6230;52.390;10.256;2023-09-18T13:45:36;26.10;55.70
12329;DHT22;6230;52.390;10.256;2023-09-18T13:48:03;26.10;55.70
12329;DHT22;6230;52.390;10.256;2023-09-18T13:50:29;26.10;55.70
12329;DHT22;6230;52.390;10.256;2023-09-18T13:52:55;26.00;55.60
12329;DHT22;6230;52.390;10.256;2023-09-18T13:55:21;26.00;55.60
12329;DHT22;6230;52.390;10.256;2023-09-18T13:57:47;26.00;55.60
12329;DHT22;6230;52.390;10.256;2023-09-18T14:00:13;25.90;55.60
12329;DHT22;6230;52.390;10.256;2023-09-18T14:02:40;25.90;55.60
12329;DHT22;6230;52.390;10.256;2023-09-18T14:05:06;25.90;55.50
12329;DHT22;6230;52.390;10.256;2023-09-18T14:07:32;25.90;55.50
12329;DHT22;6230;52.390;10.256;2023-09-18T14:09:58;25.90;55.50
12329;DHT22;6230;52.390;10.256;2023-09-18T14:12:24;25.90;55.50
12329;DHT22;6230;52.390;10.256;2023-09-18T14:14:50;25.90;55.50
12329;DHT22;6230;52.390;10.256;2023-09-18T14:17:16;25.90;55.50
12329;DHT22;6230;52.390;10.256;2023-09-18T14:19:43;26.00;55.50
12329;DHT22;6230;52.390;10.256;2023-09-18T14:22:09;26.00;55.40
12329;DHT22;6230;52.390;10.256;2023-09-18T14:24:35;26.00;55.40
12329;DHT22;6230;52.390;10.256;2023-09-18T14:27:02;26.00;55.40
12329;DHT22;6230;52.390;10.256;2023-09-18T14:29:28;26.00;55.40
12329;DHT22;6230;52.390;10.256;2023-09-18T14:31:57;26.00;55.40
12329;DHT22;6230;52.390;10.256;2023-09-18T14:34:22;26.00;55.40
12329;DHT22;6230;52.390;10.256;2023-09-18T14:36:48;26.00;55.40
12329;DHT22;6230;52.390;10.256;2023-09-18T14:39:14;26.00;55.40
12329;DHT22;6230;52.390;10.256;2023-09-18T14:41:40;25.90;55.40
12329;DHT22;6230;52.390;10.256;2023-09-18T14:44:09;25.90;55.50
12329;DHT22;6230;52.390;10.256;2023-09-18T14:46:35;25.90;55.50
12329;DHT22;6230;52.390;10.256;2023-09-18T14:49:03;25.90;55.50
12329;DHT22;6230;52.390;10.256;2023-09-18T14:51:28;25.90;55.90
12329;DHT22;6230;52.390;10.256;2023-09-18T14:53:55;25.90;55.50
12329;DHT22;6230;52.390;10.256;2023-09-18T14:56:21;25.90;55.60
12329;DHT22;6230;52.390;10.256;2023-09-18T14:58:46;25.90;55.60
12329;DHT22;6230;52.390;10.256;2023-09-18T15:01:12;25.90;55.70
12329;DHT22;6230;52.390;10.256;2023-09-18T15:03:39;25.90;55.70
12329;DHT22;6230;52.390;10.256;2023-09-18T15:06:05;25.90;55.70
12329;DHT22;6230;52.390;10.256;2023-09-18T15:08:35;25.90;55.70
12329;DHT22;6230;52.390;10.256;2023-09-18T15:11:01;25.90;55.70
12329;DHT22;6230;52.390;10.256;2023-09-18T15:13:26;25.90;55.70
12329;DHT22;6230;52.390;10.256;2023-09-18T15:15:52;25.90;55.70
12329;DHT22;6230;52.390;10.256;2023-09-18T15:18:17;25.90;55.70
12329;DHT22;6230;52.390;10.256;2023-09-18T15:20:43;25.90;55.80
12329;DHT22;6230;52.390;10.256;2023-09-18T15:23:09;25.80;55.70
12329;DHT22;6230;52.390;10.256;2023-09-18T15:25:35;25.80;55.70
12329;DHT22;6230;52.390;10.256;2023-09-18T15:28:04;25.80;55.80
12329;DHT22;6230;52.390;10.256;2023-09-18T15:30:30;25.80;55.80
12329;DHT22;6230;52.390;10.256;2023-09-18T15:32:56;25.80;55.80
12329;DHT22;6230;52.390;10.256;2023-09-18T15:35:23;25.80;55.90
12329;DHT22;6230;52.390;10.256;2023-09-18T15:37:49;25.70;55.80
12329;DHT22;6230;52.390;10.256;2023-09-18T15:40:16;25.70;55.90
12329;DHT22;6230;52.390;10.256;2023-09-18T15:42:44;25.70;55.90
12329;DHT22;6230;52.390;10.256;2023-09-18T15:45:10;25.70;55.90
12329;DHT22;6230;52.390;10.256;2023-09-18T15:47:40;25.70;55.90
12329;DHT22;6230;52.390;10.256;2023-09-18T15:50:09;25.70;56.00